Time;durP1;ratioP1;P1;durP2;ratioP2;P2;SDS_P1;SDS_P2;PMS_P1;PMS_P2;Temp;Humidity;BMP_temperature;BMP_pressure;BME280_temperature;BME280_humidity;BME280_pressure;Samples;Min_cycle;Max_cycle;Signal;HPM_P1;HPM_P2
2022/02/13 00:02:07;;;;;;;4.63;3.83;;;1.20;99.90;;;;;;4974760;28;20202;-73
2022/02/13 00:04:33;;;;;;;6.50;3.87;;;1.10;99.90;;;;;;4962835;28;20519;-72
2022/02/13 00:06:59;;;;;;;6.73;5.63;;;1.20;99.90;;;;;;4951287;29;20548;-72
2022/02/13 00:09:24;;;;;;;5.70;3.73;;;1.10;99.90;;;;;;4936422;29;20415;-72
2022/02/13 00:11:50;;;;;;;3.93;3.63;;;1.10;99.90;;;;;;4936344;29;20199;-72
2022/02/13 00:14:15;;;;;;;6.10;5.23;;;1.10;99.90;;;;;;4936626;29;20175;-73
2022/02/13 00:16:41;;;;;;;3.70;3.40;;;1.40;99.90;;;;;;4936555;29;20179;-73
2022/02/13 00:19:07;;;;;;;7.60;5.43;;;1.30;99.90;;;;;;4937346;29;20175;-73
2022/02/13 00:21:33;;;;;;;5.97;4.00;;;1.40;99.90;;;;;;4937055;29;20211;-73
2022/02/13 00:23:58;;;;;;;2.40;2.20;;;1.30;99.90;;;;;;4936903;29;20434;-74
2022/02/13 00:26:24;;;;;;;3.73;3.13;;;1.30;99.90;;;;;;4936434;29;20623;-75
2022/02/13 00:28:49;;;;;;;4.17;3.53;;;1.30;99.90;;;;;;4936739;29;20171;-72
2022/02/13 00:31:15;;;;;;;4.53;3.40;;;1.30;99.90;;;;;;4936247;29;20616;-72
2022/02/13 00:33:40;;;;;;;5.10;4.33;;;1.30;99.90;;;;;;4936082;29;20206;-72
2022/02/13 00:36:06;;;;;;;6.83;5.03;;;1.30;99.90;;;;;;4936186;29;20175;-72
2022/02/13 00:38:32;;;;;;;4.17;3.37;;;1.30;99.90;;;;;;4935833;29;20184;-72
2022/02/13 00:40:57;;;;;;;3.90;3.47;;;1.30;99.90;;;;;;4936102;29;20407;-73
2022/02/13 00:43:23;;;;;;;4.20;3.60;;;1.30;99.90;;;;;;4935955;29;20237;-72
2022/02/13 00:45:48;;;;;;;6.70;4.37;;;1.20;99.90;;;;;;4935829;29;20296;-72
2022/02/13 00:48:13;;;;;;;4.63;4.23;;;1.20;99.90;;;;;;4935839;29;20210;-72
2022/02/13 00:50:39;;;;;;;4.47;4.07;;;1.30;99.90;;;;;;4935978;29;20237;-73
2022/02/13 00:53:06;;;;;;;4.27;3.27;;;1.30;99.90;;;;;;4935780;29;20221;-73
2022/02/13 00:55:31;;;;;;;5.00;3.67;;;1.30;99.90;;;;;;4936445;29;20497;-73
2022/02/13 00:57:58;;;;;;;4.77;4.13;;;1.30;99.90;;;;;;4937161;29;20457;-73
2022/02/13 01:00:25;;;;;;;4.97;3.70;;;1.40;99.90;;;;;;4937720;29;20187;-72
2022/02/13 01:02:51;;;;;;;4.77;4.37;;;1.40;99.90;;;;;;4937162;29;20542;-73
2022/02/13 01:05:17;;;;;;;7.73;3.50;;;1.40;99.90;;;;;;4936613;29;20474;-72
2022/02/13 01:07:43;;;;;;;2.97;2.77;;;1.30;99.90;;;;;;4936418;29;20171;-73
2022/02/13 01:10:09;;;;;;;9.30;4.50;;;1.30;99.90;;;;;;4936220;29;20426;-73
2022/02/13 01:12:34;;;;;;;4.33;3.27;;;1.30;99.90;;;;;;4980385;22;20224;-68
2022/02/13 01:14:59;;;;;;;3.77;3.20;;;1.30;99.90;;;;;;5012915;28;20180;-68
2022/02/13 01:17:25;;;;;;;2.33;2.20;;;1.30;99.90;;;;;;5012806;28;20231;-68
2022/02/13 01:19:50;;;;;;;7.50;3.80;;;1.30;99.90;;;;;;5012762;28;20184;-68
2022/02/13 01:22:16;;;;;;;6.87;4.57;;;1.40;99.90;;;;;;5012490;28;20207;-68
2022/02/13 01:24:41;;;;;;;3.67;3.40;;;1.30;99.90;;;;;;5012329;28;20176;-68
2022/02/13 01:27:07;;;;;;;3.43;3.13;;;1.30;99.90;;;;;;5012653;28;20179;-68
2022/02/13 01:29:34;;;;;;;5.50;4.23;;;1.30;99.90;;;;;;5012559;28;20180;-68
2022/02/13 01:31:59;;;;;;;7.03;3.63;;;1.20;99.90;;;;;;5012546;28;20661;-68
2022/02/13 01:34:26;;;;;;;5.03;4.10;;;1.40;99.90;;;;;;5012406;28;20423;-68
2022/02/13 01:36:51;;;;;;;3.23;3.03;;;1.30;99.90;;;;;;5012521;28;20310;-68
2022/02/13 01:39:17;;;;;;;4.70;4.30;;;1.30;99.90;;;;;;5012288;28;20423;-67
2022/02/13 01:41:45;;;;;;;4.27;3.13;;;1.20;99.90;;;;;;5012473;28;20196;-67
2022/02/13 01:44:32;;;;;;;3.87;3.50;;;1.30;99.90;;;;;;5012297;28;20670;-67
2022/02/13 01:46:59;;;;;;;5.97;2.53;;;1.50;99.90;;;;;;5012544;28;20409;-68
2022/02/13 01:49:25;;;;;;;6.77;4.07;;;1.20;99.90;;;;;;5012482;28;20407;-68
2022/02/13 01:51:51;;;;;;;2.93;2.67;;;1.30;99.90;;;;;;5012577;28;20407;-68
2022/02/13 01:54:17;;;;;;;4.87;3.40;;;1.30;99.90;;;;;;5012533;28;20210;-67
2022/02/13 01:56:43;;;;;;;4.67;4.10;;;1.20;99.90;;;;;;5012857;28;20538;-68
2022/02/13 01:59:08;;;;;;;5.40;4.13;;;1.30;99.90;;;;;;5012913;28;20164;-68
2022/02/13 02:01:34;;;;;;;8.10;3.80;;;1.20;99.90;;;;;;5012646;28;20454;-68
2022/02/13 02:03:59;;;;;;;4.93;4.53;;;1.10;99.90;;;;;;5011932;28;20255;-67
2022/02/13 02:06:25;;;;;;;2.33;2.20;;;1.00;99.90;;;;;;5012388;28;20164;-67
2022/02/13 02:08:51;;;;;;;5.30;3.40;;;1.00;99.90;;;;;;5012314;28;20486;-67
2022/02/13 02:11:16;;;;;;;3.40;3.10;;;1.00;99.90;;;;;;5012459;28;20172;-68
2022/02/13 02:13:41;;;;;;;3.83;3.40;;;1.00;99.90;;;;;;5011760;28;20291;-67
2022/02/13 02:16:10;;;;;;;4.30;3.27;;;0.90;99.90;;;;;;5012075;28;20168;-67
2022/02/13 02:18:35;;;;;;;3.63;3.33;;;0.90;99.90;;;;;;5011897;28;20195;-68
2022/02/13 02:21:04;;;;;;;4.07;2.57;;;0.80;99.90;;;;;;5011613;28;20423;-68
2022/02/13 02:23:29;;;;;;;5.17;3.07;;;0.90;99.90;;;;;;5011840;28;20219;-67
2022/02/13 02:25:55;;;;;;;4.87;4.40;;;1.00;99.90;;;;;;5011991;28;20439;-67
2022/02/13 02:28:20;;;;;;;4.90;4.50;;;0.90;99.90;;;;;;5011903;28;20165;-68
2022/02/13 02:30:46;;;;;;;4.37;3.27;;;0.90;99.90;;;;;;5011918;28;20715;-68
2022/02/13 02:33:12;;;;;;;4.67;4.27;;;0.90;99.90;;;;;;5011626;28;20326;-68
2022/02/13 02:35:38;;;;;;;6.13;3.50;;;0.90;99.90;;;;;;5010383;28;20171;-68
2022/02/13 02:38:03;;;;;;;4.17;3.77;;;0.90;99.90;;;;;;5011893;28;20414;-68
2022/02/13 02:40:29;;;;;;;5.60;3.20;;;0.80;99.90;;;;;;5011968;28;20441;-68
2022/02/13 02:42:54;;;;;;;2.37;2.17;;;0.70;99.90;;;;;;5011720;28;20226;-68
2022/02/13 02:45:19;;;;;;;3.50;3.20;;;0.70;99.90;;;;;;5011679;28;20207;-68
2022/02/13 02:47:45;;;;;;;3.20;2.90;;;0.60;99.90;;;;;;5011641;28;20183;-68
2022/02/13 02:50:12;;;;;;;3.47;3.17;;;0.70;99.90;;;;;;5011620;28;20653;-68
2022/02/13 02:52:38;;;;;;;2.80;2.60;;;0.60;99.90;;;;;;5011546;28;20194;-68
2022/02/13 02:55:04;;;;;;;3.83;3.63;;;0.70;99.90;;;;;;5011608;28;20743;-68
2022/02/13 02:57:30;;;;;;;3.83;2.97;;;0.60;99.90;;;;;;5011471;28;20187;-68
2022/02/13 02:59:55;;;;;;;4.07;3.10;;;0.60;99.90;;;;;;5011549;28;20823;-68
2022/02/13 03:02:20;;;;;;;4.47;3.67;;;0.60;99.90;;;;;;5011374;28;20279;-68
2022/02/13 03:04:46;;;;;;;6.37;3.63;;;0.60;99.90;;;;;;5011388;28;20201;-68
2022/02/13 03:07:12;;;;;;;4.17;2.90;;;0.70;99.90;;;;;;5012122;28;20483;-68
2022/02/13 03:09:37;;;;;;;4.37;4.00;;;0.60;99.90;;;;;;5015480;28;20164;-68
2022/02/13 03:12:03;;;;;;;7.40;2.80;;;0.60;99.90;;;;;;5016049;28;20176;-69
2022/02/13 03:14:28;;;;;;;2.83;2.63;;;0.70;99.90;;;;;;5011867;28;20188;-68
2022/02/13 03:16:54;;;;;;;4.80;2.77;;;0.60;99.90;;;;;;5011332;28;20544;-68
2022/02/13 03:19:19;;;;;;;3.67;2.37;;;0.60;99.90;;;;;;5011451;28;20177;-68
2022/02/13 03:21:45;;;;;;;5.80;4.47;;;0.60;99.90;;;;;;5011116;28;20205;-68
2022/02/13 03:24:10;;;;;;;4.93;3.03;;;0.60;99.90;;;;;;5011150;28;20208;-68
2022/02/13 03:26:36;;;;;;;6.60;3.73;;;0.60;99.90;;;;;;5011045;28;20175;-68
2022/02/13 03:29:02;;;;;;;5.63;3.70;;;0.60;99.90;;;;;;5011253;28;20207;-68
2022/02/13 03:31:28;;;;;;;3.37;3.10;;;0.60;99.90;;;;;;5011359;28;20259;-68
2022/02/13 03:33:54;;;;;;;2.00;1.80;;;0.60;99.90;;;;;;5014558;28;20985;-68
2022/02/13 03:36:19;;;;;;;4.03;3.63;;;0.60;99.90;;;;;;5014543;28;20183;-68
2022/02/13 03:38:45;;;;;;;4.07;3.57;;;0.60;99.90;;;;;;5014613;28;20407;-68
2022/02/13 03:41:11;;;;;;;2.60;2.27;;;0.60;99.90;;;;;;4996744;28;20173;-68
2022/02/13 03:43:36;;;;;;;4.10;3.83;;;0.60;99.90;;;;;;5014348;28;20979;-68
2022/02/13 03:46:02;;;;;;;3.33;3.07;;;0.70;99.90;;;;;;5014347;28;20182;-68
2022/02/13 03:48:28;;;;;;;2.70;2.50;;;0.70;99.90;;;;;;5014554;28;20187;-68
2022/02/13 03:50:53;;;;;;;5.03;3.50;;;0.70;99.90;;;;;;5014354;28;20678;-67
2022/02/13 03:53:18;;;;;;;4.90;4.37;;;0.60;99.90;;;;;;5014267;28;20200;-67
2022/02/13 03:55:44;;;;;;;9.30;5.40;;;0.60;99.90;;;;;;5014134;28;20213;-68
2022/02/13 03:58:09;;;;;;;3.67;3.33;;;0.60;99.90;;;;;;5014300;28;20180;-68
2022/02/13 04:00:35;;;;;;;3.73;3.47;;;0.60;99.90;;;;;;5014316;28;20184;-68
2022/02/13 04:03:01;;;;;;;3.70;3.40;;;0.60;99.90;;;;;;5013962;28;20211;-68
2022/02/13 04:05:27;;;;;;;3.07;2.87;;;0.60;99.90;;;;;;5014299;28;20259;-68
2022/02/13 04:07:52;;;;;;;3.87;3.50;;;0.60;99.90;;;;;;5014389;28;20434;-68
2022/02/13 04:10:18;;;;;;;4.47;3.30;;;0.60;99.90;;;;;;5014309;28;20168;-68
2022/02/13 04:12:43;;;;;;;3.87;3.57;;;0.60;99.90;;;;;;5014305;28;20236;-68
2022/02/13 04:15:10;;;;;;;3.17;2.87;;;0.60;99.90;;;;;;5014394;28;20179;-68
2022/02/13 04:17:36;;;;;;;4.00;3.60;;;0.60;99.90;;;;;;5014793;28;20172;-67
2022/02/13 04:20:02;;;;;;;4.33;2.77;;;0.50;99.90;;;;;;5015542;28;20408;-68
2022/02/13 04:22:28;;;;;;;11.53;4.27;;;0.50;99.90;;;;;;5014159;28;20291;-69
2022/02/13 04:24:53;;;;;;;5.30;2.63;;;0.50;99.90;;;;;;5013691;28;20999;-68
2022/02/13 04:27:19;;;;;;;5.70;4.00;;;0.50;99.90;;;;;;5013764;28;20168;-68
2022/02/13 04:29:44;;;;;;;3.50;3.30;;;0.50;99.90;;;;;;5013599;28;20161;-68
2022/02/13 04:32:10;;;;;;;4.30;3.87;;;0.50;99.90;;;;;;5013347;28;20259;-68
2022/02/13 04:34:36;;;;;;;3.77;2.73;;;0.50;99.90;;;;;;5013500;28;20291;-68
2022/02/13 04:37:01;;;;;;;3.57;3.37;;;0.40;99.90;;;;;;5013465;28;20168;-68
2022/02/13 04:39:27;;;;;;;4.30;3.20;;;0.40;99.90;;;;;;5013470;28;20842;-68
2022/02/13 04:41:52;;;;;;;10.43;3.90;;;0.50;99.90;;;;;;5013215;28;20447;-67
2022/02/13 04:44:18;;;;;;;3.23;3.03;;;0.40;99.90;;;;;;5012413;28;20273;-68
2022/02/13 04:46:44;;;;;;;4.13;3.80;;;0.40;99.90;;;;;;5013398;28;20172;-67
2022/02/13 04:49:09;;;;;;;2.60;2.23;;;0.30;99.90;;;;;;5013295;28;20631;-67
2022/02/13 04:51:35;;;;;;;4.40;3.40;;;0.40;99.90;;;;;;5013158;28;20185;-67
2022/02/13 04:54:00;;;;;;;3.13;2.00;;;0.40;99.90;;;;;;5013038;28;20192;-68
2022/02/13 04:56:25;;;;;;;4.93;2.93;;;0.40;99.90;;;;;;5012921;28;20526;-68
2022/02/13 04:58:51;;;;;;;3.43;3.13;;;0.40;99.90;;;;;;5010776;28;20203;-68
2022/02/13 05:01:16;;;;;;;4.37;4.07;;;0.30;99.90;;;;;;5012597;28;20188;-68
2022/02/13 05:03:42;;;;;;;4.00;3.70;;;0.30;99.90;;;;;;5012903;28;20254;-68
2022/02/13 05:06:08;;;;;;;6.77;5.43;;;0.30;99.90;;;;;;5012688;28;20172;-68
2022/02/13 05:08:33;;;;;;;3.10;2.63;;;0.30;99.90;;;;;;5012901;28;20298;-68
2022/02/13 05:10:59;;;;;;;6.03;3.20;;;0.30;99.90;;;;;;5012678;28;20540;-68
2022/02/13 05:13:24;;;;;;;5.07;3.50;;;0.30;99.90;;;;;;5012573;28;20224;-68
2022/02/13 05:15:50;;;;;;;3.53;2.17;;;0.30;99.90;;;;;;5011106;28;20580;-68
2022/02/13 05:18:15;;;;;;;6.27;4.10;;;0.30;99.90;;;;;;5012688;28;20173;-68
2022/02/13 05:20:40;;;;;;;2.80;2.60;;;0.30;99.90;;;;;;5012735;28;20175;-67
2022/02/13 05:23:06;;;;;;;10.77;3.87;;;0.30;99.90;;;;;;5012394;28;20247;-67
2022/02/13 05:25:31;;;;;;;5.83;3.77;;;0.30;99.90;;;;;;5012391;28;20169;-70
2022/02/13 05:27:57;;;;;;;7.73;4.30;;;0.30;99.90;;;;;;5012354;28;20172;-68
2022/02/13 05:30:22;;;;;;;3.00;2.77;;;0.20;99.90;;;;;;5012458;28;20171;-68
2022/02/13 05:32:48;;;;;;;5.97;3.07;;;0.30;99.90;;;;;;5012010;28;20223;-68
2022/02/13 05:35:13;;;;;;;3.87;3.50;;;0.20;99.90;;;;;;5012343;28;20179;-68
2022/02/13 05:37:39;;;;;;;6.67;3.20;;;0.30;99.90;;;;;;5012318;28;20164;-68
2022/02/13 05:40:05;;;;;;;3.50;2.63;;;0.30;99.90;;;;;;5012364;28;20608;-68
2022/02/13 05:42:31;;;;;;;5.03;2.60;;;0.30;99.90;;;;;;5012412;28;20211;-67
2022/02/13 05:44:56;;;;;;;3.13;2.93;;;0.30;99.90;;;;;;5012349;28;20411;-68
2022/02/13 05:47:22;;;;;;;3.90;3.60;;;0.20;99.90;;;;;;5012581;28;20223;-68
2022/02/13 05:49:48;;;;;;;7.00;3.27;;;0.20;99.90;;;;;;5012369;28;20164;-67
2022/02/13 05:52:13;;;;;;;3.03;2.77;;;0.20;99.90;;;;;;5012427;28;20220;-67
2022/02/13 05:54:39;;;;;;;4.23;3.43;;;0.20;99.90;;;;;;5011649;28;20176;-68
2022/02/13 05:57:04;;;;;;;2.87;2.67;;;0.20;99.90;;;;;;5012416;28;20258;-68
2022/02/13 05:59:30;;;;;;;4.80;4.33;;;0.20;99.90;;;;;;5012590;28;20178;-68
2022/02/13 06:01:56;;;;;;;4.30;2.40;;;0.20;99.90;;;;;;5012581;28;20196;-68
2022/02/13 06:04:23;;;;;;;2.63;2.43;;;0.20;99.90;;;;;;5011996;28;20403;-68
2022/02/13 06:06:50;;;;;;;4.00;3.03;;;0.10;99.90;;;;;;5011761;28;20172;-68
2022/02/13 06:09:16;;;;;;;5.57;5.03;;;0.10;99.90;;;;;;5011704;28;20419;-68
2022/02/13 06:11:42;;;;;;;3.60;2.63;;;0.10;99.90;;;;;;5012039;28;20913;-68
2022/02/13 06:14:08;;;;;;;3.43;2.53;;;0.10;99.90;;;;;;5011764;28;20880;-68
2022/02/13 06:16:33;;;;;;;3.37;2.53;;;0.10;99.90;;;;;;5012121;28;20449;-68
2022/02/13 06:18:59;;;;;;;2.80;2.60;;;0.10;99.90;;;;;;5011894;28;20176;-68
2022/02/13 06:21:24;;;;;;;5.40;3.53;;;0.10;99.90;;;;;;5011863;28;20231;-67
2022/02/13 06:23:50;;;;;;;4.53;3.80;;;0.00;99.90;;;;;;5011451;28;20263;-68
2022/02/13 06:26:15;;;;;;;4.37;2.93;;;0.00;99.90;;;;;;5011870;28;20661;-69
2022/02/13 06:28:41;;;;;;;3.17;2.00;;;0.00;99.90;;;;;;5012431;28;20204;-69
2022/02/13 06:31:07;;;;;;;3.10;2.80;;;0.00;99.90;;;;;;5012370;28;20259;-69
2022/02/13 06:33:32;;;;;;;3.77;3.43;;;0.10;99.90;;;;;;5013894;28;20184;-68
2022/02/13 06:35:58;;;;;;;3.70;3.00;;;0.10;99.90;;;;;;5014198;28;20168;-69
2022/02/13 06:38:23;;;;;;;4.30;3.77;;;0.10;99.90;;;;;;5011542;28;20184;-68
2022/02/13 06:40:48;;;;;;;3.63;2.40;;;0.10;99.90;;;;;;5011941;28;20179;-68
2022/02/13 06:43:14;;;;;;;3.40;3.17;;;0.20;99.90;;;;;;5011377;28;20287;-68
2022/02/13 06:45:41;;;;;;;2.33;2.00;;;0.20;99.90;;;;;;5011438;28;20271;-68
2022/02/13 06:48:07;;;;;;;6.53;3.73;;;0.20;99.90;;;;;;5011644;28;20598;-68
2022/02/13 06:50:33;;;;;;;3.93;2.30;;;0.30;99.90;;;;;;5011366;28;20416;-68
2022/02/13 06:52:58;;;;;;;6.80;3.20;;;0.30;99.90;;;;;;5011154;28;20999;-69
2022/02/13 06:55:24;;;;;;;2.27;2.07;;;0.30;99.90;;;;;;5011401;28;20658;-69
2022/02/13 06:57:50;;;;;;;1.90;1.77;;;0.30;99.90;;;;;;5011421;28;20223;-68
2022/02/13 07:00:17;;;;;;;2.70;2.47;;;0.40;99.90;;;;;;5011140;28;20256;-68
2022/02/13 07:02:44;;;;;;;6.63;4.10;;;0.40;99.90;;;;;;5011557;28;20459;-68
2022/02/13 07:05:10;;;;;;;2.63;2.43;;;0.50;99.90;;;;;;5011091;28;20490;-68
2022/02/13 07:07:36;;;;;;;6.67;6.17;;;0.50;99.90;;;;;;5013070;28;20482;-68
2022/02/13 07:10:12;;;;;;;9.30;5.43;;;0.60;99.90;;;;;;5015142;28;20443;-68
2022/02/13 07:12:39;;;;;;;6.17;4.53;;;0.70;99.90;;;;;;5038012;22;20508;-71
2022/02/13 07:15:07;;;;;;;4.77;3.17;;;0.90;99.90;;;;;;4995120;28;20436;-72
2022/02/13 07:17:36;;;;;;;13.00;3.73;;;1.00;99.90;;;;;;4998610;28;20896;-72
2022/02/13 07:20:04;;;;;;;5.33;4.60;;;1.00;99.90;;;;;;4998767;28;20898;-72
2022/02/13 07:22:30;;;;;;;4.20;3.90;;;1.00;99.90;;;;;;4995183;28;20535;-72
2022/02/13 07:24:55;;;;;;;5.90;2.67;;;1.10;99.90;;;;;;4995635;28;20921;-72
2022/02/13 07:27:21;;;;;;;1.80;1.70;;;1.10;99.90;;;;;;4995260;28;20223;-72
2022/02/13 07:29:46;;;;;;;6.23;3.83;;;1.10;99.90;;;;;;4995352;28;20157;-72
2022/02/13 07:32:12;;;;;;;7.33;3.13;;;1.20;99.90;;;;;;4995092;28;20173;-72
2022/02/13 07:34:37;;;;;;;4.40;2.87;;;1.40;99.90;;;;;;4995639;28;20189;-72
2022/02/13 07:37:03;;;;;;;4.70;3.57;;;1.50;99.90;;;;;;4995286;28;20278;-72
2022/02/13 07:39:29;;;;;;;8.73;3.17;;;2.00;99.90;;;;;;4995329;28;20184;-72
2022/02/13 07:41:55;;;;;;;6.10;4.07;;;2.30;99.90;;;;;;4995128;28;20201;-72
2022/02/13 07:44:21;;;;;;;3.80;3.40;;;2.20;99.90;;;;;;4994761;28;20958;-72
2022/02/13 07:46:47;;;;;;;3.73;2.67;;;2.30;99.90;;;;;;4995232;28;20401;-70
2022/02/13 07:49:12;;;;;;;5.13;3.40;;;2.50;99.90;;;;;;4995277;28;20181;-71
2022/02/13 07:51:38;;;;;;;5.10;3.70;;;2.40;99.90;;;;;;4994899;28;20662;-71
2022/02/13 07:54:04;;;;;;;2.63;2.20;;;2.30;99.90;;;;;;4994989;28;20270;-71
2022/02/13 07:56:29;;;;;;;3.43;2.20;;;2.10;99.90;;;;;;4994622;28;20195;-71
2022/02/13 07:58:55;;;;;;;3.57;2.80;;;2.20;99.90;;;;;;4994929;28;20463;-72
2022/02/13 08:01:20;;;;;;;3.83;3.30;;;2.50;99.90;;;;;;4995410;28;20176;-70
2022/02/13 08:03:46;;;;;;;5.00;2.67;;;2.50;99.90;;;;;;4994701;28;20193;-72
2022/02/13 08:06:12;;;;;;;5.60;3.80;;;2.70;99.90;;;;;;4995111;28;20177;-71
2022/02/13 08:08:38;;;;;;;4.40;3.23;;;3.20;99.90;;;;;;4977966;28;20413;-71
2022/02/13 08:11:04;;;;;;;3.50;3.20;;;3.50;99.90;;;;;;4995097;28;20462;-71
2022/02/13 08:13:30;;;;;;;3.33;3.03;;;3.30;99.90;;;;;;4994817;28;20282;-71
2022/02/13 08:15:56;;;;;;;4.30;3.90;;;3.30;99.90;;;;;;4996446;28;20451;-71
2022/02/13 08:18:21;;;;;;;7.03;3.57;;;3.20;99.90;;;;;;4996868;28;20408;-71
2022/02/13 08:20:47;;;;;;;4.20;3.40;;;3.30;99.90;;;;;;4996552;28;20169;-72
2022/02/13 08:23:12;;;;;;;2.67;2.47;;;3.70;99.90;;;;;;4995654;28;20207;-71
2022/02/13 08:25:42;;;;;;;2.80;2.10;;;3.60;99.90;;;;;;4995220;28;20184;-72
2022/02/13 08:28:07;;;;;;;3.83;3.03;;;3.80;99.90;;;;;;4994698;28;20165;-72
2022/02/13 08:30:33;;;;;;;3.50;3.20;;;3.90;99.90;;;;;;4994762;28;20407;-71
2022/02/13 08:32:58;;;;;;;2.93;2.73;;;4.30;99.90;;;;;;4994517;28;20242;-71
2022/02/13 08:35:25;;;;;;;3.03;2.13;;;4.80;99.90;;;;;;4994407;28;20169;-71
2022/02/13 08:37:50;;;;;;;4.00;3.17;;;5.30;99.90;;;;;;4994463;28;20200;-71
2022/02/13 08:40:16;;;;;;;3.00;2.80;;;5.00;99.90;;;;;;4994287;28;20412;-71
2022/02/13 08:42:41;;;;;;;2.57;2.37;;;4.50;99.90;;;;;;4994610;28;20213;-71
2022/02/13 08:45:07;;;;;;;5.10;2.40;;;4.50;99.90;;;;;;4994116;28;20161;-71
2022/02/13 08:47:33;;;;;;;3.70;2.53;;;4.60;99.90;;;;;;4993892;28;20169;-73
2022/02/13 08:49:58;;;;;;;3.47;3.20;;;5.20;99.90;;;;;;4994342;28;20404;-71
2022/02/13 08:52:24;;;;;;;2.40;2.00;;;4.70;99.90;;;;;;4993826;28;20184;-72
2022/02/13 08:54:49;;;;;;;5.80;3.13;;;5.10;99.90;;;;;;4993752;28;20188;-73
2022/02/13 08:57:15;;;;;;;5.03;3.10;;;4.50;99.90;;;;;;4993945;28;20172;-72
2022/02/13 08:59:40;;;;;;;2.10;1.90;;;4.40;99.90;;;;;;4993924;28;20183;-72
2022/02/13 09:02:06;;;;;;;4.40;3.27;;;4.10;99.90;;;;;;4993849;28;20204;-72
2022/02/13 09:04:32;;;;;;;4.27;3.20;;;4.40;99.90;;;;;;4994329;28;20277;-72
2022/02/13 09:07:01;;;;;;;5.90;3.07;;;4.80;99.90;;;;;;4981780;28;20704;-72
2022/02/13 09:09:28;;;;;;;3.60;3.30;;;5.10;99.90;;;;;;4995017;28;20455;-72
2022/02/13 09:11:54;;;;;;;4.23;3.83;;;5.20;99.90;;;;;;4993884;28;20773;-72
2022/02/13 09:14:19;;;;;;;4.40;2.77;;;5.00;99.90;;;;;;4993534;28;20450;-72
2022/02/13 09:16:45;;;;;;;3.80;2.03;;;5.50;99.90;;;;;;4993952;28;20994;-72
2022/02/13 09:19:11;;;;;;;2.90;2.70;;;5.80;99.90;;;;;;4994180;28;20536;-72
2022/02/13 09:21:37;;;;;;;5.60;3.53;;;5.90;99.90;;;;;;4993839;28;20204;-73
2022/02/13 09:24:02;;;;;;;4.20;2.90;;;5.90;99.90;;;;;;4976458;28;20265;-72
2022/02/13 09:26:28;;;;;;;4.70;3.03;;;5.80;99.90;;;;;;4993777;28;20251;-72
2022/02/13 09:28:54;;;;;;;2.90;2.43;;;6.10;99.90;;;;;;4974879;28;20235;-73
2022/02/13 09:31:19;;;;;;;2.60;1.97;;;5.60;99.90;;;;;;4991454;28;20727;-72
2022/02/13 09:33:45;;;;;;;3.53;2.57;;;5.80;99.90;;;;;;4992692;28;20272;-71
2022/02/13 09:36:12;;;;;;;2.90;2.47;;;5.70;99.90;;;;;;4993106;28;20264;-71
2022/02/13 09:38:38;;;;;;;2.40;2.03;;;5.80;99.90;;;;;;4991272;28;20172;-72
2022/02/13 09:41:05;;;;;;;5.67;2.03;;;5.90;99.90;;;;;;4992708;28;20423;-72
2022/02/13 09:43:31;;;;;;;2.60;2.40;;;6.40;99.90;;;;;;4992705;28;20231;-71
2022/02/13 09:45:58;;;;;;;2.83;2.23;;;5.90;99.90;;;;;;4991502;28;20443;-72
2022/02/13 09:48:27;;;;;;;3.90;2.60;;;5.50;99.90;;;;;;4992685;28;20463;-72
2022/02/13 09:50:55;;;;;;;3.07;2.80;;;5.50;99.90;;;;;;4993237;28;20393;-72
2022/02/13 09:53:21;;;;;;;2.77;2.03;;;5.60;99.90;;;;;;4992772;28;20931;-72
2022/02/13 09:55:47;;;;;;;2.40;2.20;;;5.60;99.90;;;;;;4992768;28;20412;-71
2022/02/13 09:58:13;;;;;;;3.13;2.20;;;5.70;99.90;;;;;;4992777;28;20419;-73
2022/02/13 10:00:53;;;;;;;4.27;3.07;;;5.40;99.90;;;;;;4993114;28;20427;-72
2022/02/13 10:03:26;;;;;;;8.40;2.70;;;5.50;99.90;;;;;;4993396;28;20823;-73
2022/02/13 10:05:55;;;;;;;2.93;2.73;;;5.30;99.90;;;;;;4993545;28;20419;-72
2022/02/13 10:08:35;;;;;;;3.63;2.50;;;5.20;99.90;;;;;;4975652;28;20578;-72
2022/02/13 10:11:10;;;;;;;3.10;2.40;;;5.00;99.90;;;;;;4992932;28;20400;-71
2022/02/13 10:13:58;;;;;;;3.67;2.67;;;5.20;99.90;;;;;;4975106;28;20465;-72
2022/02/13 10:16:29;;;;;;;2.73;2.53;;;5.10;99.90;;;;;;4975150;28;20414;-72
2022/02/13 10:19:05;;;;;;;2.70;2.50;;;5.00;99.90;;;;;;4992837;28;20417;-72
2022/02/13 10:21:42;;;;;;;3.60;2.17;;;5.00;99.90;;;;;;4992903;28;20424;-72
2022/02/13 10:24:11;;;;;;;2.40;1.93;;;5.20;99.90;;;;;;4975248;28;20428;-73
2022/02/13 10:26:37;;;;;;;3.03;2.50;;;5.10;99.90;;;;;;4992472;28;20459;-73
2022/02/13 10:29:03;;;;;;;3.30;2.70;;;5.10;99.90;;;;;;4992763;28;20400;-72
2022/02/13 10:31:29;;;;;;;3.80;2.90;;;5.20;99.90;;;;;;4993172;28;20172;-72
2022/02/13 10:33:59;;;;;;;4.10;2.30;;;5.30;99.90;;;;;;4992627;28;20625;-72
2022/02/13 10:36:26;;;;;;;5.10;3.10;;;5.40;99.90;;;;;;4993134;28;20419;-72
2022/02/13 10:38:52;;;;;;;3.30;2.40;;;5.40;99.90;;;;;;4994449;28;20914;-72
2022/02/13 10:41:21;;;;;;;3.50;2.57;;;5.20;99.90;;;;;;4994560;28;20490;-73
2022/02/13 10:43:54;;;;;;;3.43;2.37;;;5.30;99.90;;;;;;4997024;28;20420;-72
2022/02/13 10:46:21;;;;;;;3.40;2.33;;;5.30;99.90;;;;;;4979529;28;20812;-72
2022/02/13 10:48:47;;;;;;;2.67;1.93;;;5.40;99.90;;;;;;4996796;28;20754;-73
2022/02/13 10:51:13;;;;;;;3.30;2.70;;;5.40;99.90;;;;;;4997187;28;20411;-72
2022/02/13 10:53:43;;;;;;;2.10;2.00;;;5.40;99.90;;;;;;4998572;28;20192;-72
2022/02/13 10:56:10;;;;;;;2.20;2.00;;;5.50;99.90;;;;;;4984504;28;21041;-72
2022/02/13 10:58:37;;;;;;;3.20;1.73;;;5.60;99.90;;;;;;4998444;28;20407;-72
2022/02/13 11:01:05;;;;;;;3.27;3.00;;;5.60;99.90;;;;;;4997407;28;20551;-74
2022/02/13 11:03:35;;;;;;;4.60;2.03;;;5.60;99.90;;;;;;4996844;28;20467;-72
2022/02/13 11:06:03;;;;;;;4.70;3.50;;;5.60;99.90;;;;;;4996869;28;20408;-73
2022/02/13 11:08:33;;;;;;;3.93;2.90;;;5.60;99.90;;;;;;4991488;28;20884;-72
2022/02/13 11:11:00;;;;;;;2.47;2.27;;;5.70;99.90;;;;;;4976924;28;20915;-72
2022/02/13 11:13:28;;;;;;;2.43;2.00;;;5.90;99.90;;;;;;4976718;28;20445;-73
2022/02/13 11:15:53;;;;;;;1.93;1.83;;;6.00;99.90;;;;;;4976844;28;20405;-73
2022/02/13 11:18:21;;;;;;;2.90;2.70;;;5.90;99.90;;;;;;4976989;28;20479;-73
2022/02/13 11:20:49;;;;;;;2.90;2.63;;;6.00;99.90;;;;;;4976880;28;20185;-73
2022/02/13 11:23:31;;;;;;;2.40;2.20;;;5.90;99.90;;;;;;4959437;28;20464;-74
2022/02/13 11:26:02;;;;;;;2.00;1.77;;;6.00;99.90;;;;;;4976905;28;20459;-73
2022/02/13 11:28:43;;;;;;;2.13;1.77;;;6.10;99.90;;;;;;4977177;28;20397;-73
2022/02/13 11:31:28;;;;;;;2.57;2.00;;;6.20;99.90;;;;;;4977012;28;20439;-72
2022/02/13 11:33:54;;;;;;;4.47;2.53;;;6.30;99.90;;;;;;4976397;28;20438;-72
2022/02/13 11:36:20;;;;;;;2.50;2.30;;;6.20;99.90;;;;;;4976520;28;20424;-73
2022/02/13 11:38:48;;;;;;;4.80;2.23;;;6.10;99.90;;;;;;4976799;28;20822;-73
2022/02/13 11:42:03;;;;;;;7.43;2.37;;;6.20;99.90;;;;;;4976877;28;20803;-73
2022/02/13 11:44:33;;;;;;;3.50;2.27;;;6.40;99.90;;;;;;4972580;28;20488;-73
2022/02/13 11:46:59;;;;;;;3.10;2.10;;;6.40;99.90;;;;;;4974699;28;20412;-73
2022/02/13 11:49:25;;;;;;;2.57;2.37;;;6.30;99.90;;;;;;4976277;28;20401;-73
2022/02/13 11:51:52;;;;;;;3.97;2.70;;;6.40;99.90;;;;;;4976062;28;20814;-73
2022/02/13 11:54:40;;;;;;;2.83;2.40;;;6.50;99.90;;;;;;4975268;28;20207;-73
2022/02/13 11:57:21;;;;;;;2.23;2.00;;;6.40;99.90;;;;;;4975693;28;20404;-73
2022/02/13 12:00:06;;;;;;;2.40;1.90;;;6.40;99.90;;;;;;4975942;28;20435;-73
2022/02/13 12:02:35;;;;;;;2.83;2.30;;;6.40;99.90;;;;;;4975920;28;20459;-73
2022/02/13 12:05:06;;;;;;;2.30;2.10;;;6.50;99.90;;;;;;4975895;28;20499;-72
2022/02/13 12:07:38;;;;;;;2.37;2.17;;;6.60;99.90;;;;;;4976290;28;20855;-72
2022/02/13 12:10:25;;;;;;;3.30;2.50;;;6.70;99.90;;;;;;4976709;28;20409;-72
2022/02/13 12:12:51;;;;;;;3.20;2.17;;;6.70;99.90;;;;;;4975923;28;20503;-72
2022/02/13 12:15:17;;;;;;;3.47;2.57;;;6.80;99.90;;;;;;4975913;28;20421;-73
2022/02/13 12:17:43;;;;;;;3.90;3.10;;;6.90;99.90;;;;;;4975644;28;20431;-71
2022/02/13 12:20:11;;;;;;;3.13;2.20;;;7.10;99.90;;;;;;4975725;28;20178;-73
2022/02/13 12:22:37;;;;;;;5.30;2.83;;;6.90;99.90;;;;;;4975623;28;20213;-73
2022/02/13 12:25:05;;;;;;;2.60;2.33;;;6.80;99.90;;;;;;4975965;28;20880;-74
2022/02/13 12:27:31;;;;;;;3.20;2.70;;;6.90;99.90;;;;;;4976032;28;20499;-71
2022/02/13 12:29:59;;;;;;;2.10;1.90;;;6.90;99.90;;;;;;4977083;28;20443;-72
2022/02/13 12:32:30;;;;;;;3.60;2.60;;;7.00;99.90;;;;;;4976768;28;20444;-72
2022/02/13 12:34:57;;;;;;;4.20;2.20;;;7.00;99.90;;;;;;4977634;28;20416;-72
2022/02/13 12:37:43;;;;;;;2.40;2.20;;;7.00;99.90;;;;;;4979487;28;20424;-71
2022/02/13 12:40:12;;;;;;;3.33;2.30;;;7.00;99.90;;;;;;4961484;28;20413;-72
2022/02/13 12:42:41;;;;;;;3.20;2.90;;;7.10;99.90;;;;;;4978550;28;20465;-72
2022/02/13 12:45:09;;;;;;;3.00;2.03;;;7.30;99.90;;;;;;4977204;28;20417;-73
2022/02/13 12:47:36;;;;;;;2.17;1.93;;;7.40;99.90;;;;;;4976046;28;20413;-72
2022/02/13 12:50:09;;;;;;;2.53;1.80;;;7.40;99.90;;;;;;4975485;28;20441;-73
2022/02/13 12:52:35;;;;;;;1.93;1.70;;;7.20;99.90;;;;;;4975130;28;20440;-73
2022/02/13 12:55:08;;;;;;;3.70;2.20;;;7.30;99.90;;;;;;4974687;28;20412;-73
2022/02/13 12:57:34;;;;;;;1.80;1.70;;;7.40;99.90;;;;;;4974708;28;20508;-72